Time;durP1;ratioP1;P1;durP2;ratioP2;P2;SDS_P1;SDS_P2;PMS_P1;PMS_P2;Temp;Humidity;BMP_temperature;BMP_pressure;BME280_temperature;BME280_humidity;BME280_pressure;Samples;Min_cycle;Max_cycle;Signal;HPM_P1;HPM_P2
2021/12/23 04:02:43;;;;;;;10.20;7.50;;;-1.00;77.10;;;;;;5080521;22;20574;-68
2021/12/23 04:05:11;;;;;;;8.97;8.07;;;-1.10;77.00;;;;;;5013150;28;20474;-69
2021/12/23 04:07:38;;;;;;;8.77;7.87;;;-1.30;77.40;;;;;;5013126;28;20494;-69
2021/12/23 04:10:06;;;;;;;8.33;7.17;;;-1.40;77.50;;;;;;5013088;28;20932;-68
2021/12/23 04:12:33;;;;;;;7.93;6.77;;;-1.40;78.00;;;;;;5013019;28;20468;-68
2021/12/23 04:15:09;;;;;;;8.50;6.83;;;-1.20;77.80;;;;;;5013475;28;20864;-68
2021/12/23 04:17:36;;;;;;;8.30;7.33;;;-1.20;77.80;;;;;;5013875;28;20448;-69
2021/12/23 04:20:15;;;;;;;8.60;7.50;;;-1.00;77.50;;;;;;5013014;28;20852;-68
2021/12/23 04:22:42;;;;;;;7.70;6.80;;;-0.80;76.80;;;;;;5012916;28;20468;-68
2021/12/23 04:25:10;;;;;;;8.80;7.37;;;-0.70;76.30;;;;;;5012933;28;20482;-68
2021/12/23 04:27:37;;;;;;;9.70;8.40;;;-0.50;76.00;;;;;;5012950;28;20456;-68
2021/12/23 04:30:06;;;;;;;9.47;8.30;;;-0.60;75.70;;;;;;5012927;28;20507;-68
2021/12/23 04:32:33;;;;;;;8.67;7.77;;;-0.90;76.10;;;;;;5012885;28;20460;-68
2021/12/23 04:35:00;;;;;;;8.33;7.20;;;-1.20;77.00;;;;;;5012462;28;20943;-69
2021/12/23 04:37:28;;;;;;;8.50;7.60;;;-1.40;77.80;;;;;;5012714;28;20510;-68
2021/12/23 04:39:54;;;;;;;9.10;8.20;;;-1.70;78.80;;;;;;5013912;28;20927;-68
2021/12/23 04:42:21;;;;;;;9.00;7.17;;;-1.70;79.70;;;;;;5016145;28;20885;-69
2021/12/23 04:44:48;;;;;;;9.17;8.20;;;-1.70;80.00;;;;;;5016315;28;20462;-68
2021/12/23 04:47:15;;;;;;;7.97;7.17;;;-1.60;80.00;;;;;;5016020;28;20486;-68
2021/12/23 04:49:41;;;;;;;9.57;8.47;;;-1.40;79.80;;;;;;5016072;28;20534;-68
2021/12/23 04:52:08;;;;;;;9.03;7.70;;;-1.40;78.90;;;;;;5016003;28;20472;-68
2021/12/23 04:54:36;;;;;;;9.40;8.13;;;-1.40;79.20;;;;;;5016015;28;20475;-67
2021/12/23 04:57:03;;;;;;;8.90;8.00;;;-1.30;78.90;;;;;;5015956;28;20452;-68
2021/12/23 04:59:30;;;;;;;9.23;8.33;;;-1.20;78.60;;;;;;5015935;28;20444;-68
2021/12/23 05:01:57;;;;;;;7.23;6.53;;;-1.40;78.80;;;;;;5015309;28;20484;-68
2021/12/23 05:04:23;;;;;;;7.97;7.17;;;-1.70;79.60;;;;;;5015784;28;20457;-69
2021/12/23 05:06:50;;;;;;;9.13;7.33;;;-1.80;80.30;;;;;;5015357;28;20843;-68
2021/12/23 05:09:17;;;;;;;7.40;6.67;;;-1.90;80.80;;;;;;5015309;28;20919;-68
2021/12/23 05:11:45;;;;;;;9.07;7.50;;;-1.90;81.10;;;;;;5015500;28;20554;-68
2021/12/23 05:14:12;;;;;;;9.80;8.70;;;-1.90;80.90;;;;;;5015505;28;20455;-69
2021/12/23 05:16:38;;;;;;;8.90;7.63;;;-2.00;81.00;;;;;;5015557;28;20494;-69
2021/12/23 05:19:05;;;;;;;9.97;8.07;;;-1.90;81.20;;;;;;5015215;28;20963;-67
2021/12/23 05:21:32;;;;;;;8.30;7.30;;;-2.00;81.10;;;;;;5015491;28;20825;-68
2021/12/23 05:23:59;;;;;;;10.07;8.53;;;-1.90;81.30;;;;;;5015705;28;20494;-68
2021/12/23 05:26:25;;;;;;;9.17;7.50;;;-1.80;80.90;;;;;;5015403;28;20448;-69
2021/12/23 05:28:53;;;;;;;8.47;7.67;;;-1.70;80.90;;;;;;5015425;28;20498;-68
2021/12/23 05:31:20;;;;;;;8.37;7.17;;;-1.60;80.30;;;;;;5015218;28;20496;-68
2021/12/23 05:33:47;;;;;;;9.03;6.77;;;-1.70;80.10;;;;;;5015304;28;20475;-68
2021/12/23 05:36:13;;;;;;;8.50;7.17;;;-1.70;80.20;;;;;;5015308;28;20513;-68
2021/12/23 05:38:40;;;;;;;8.90;8.00;;;-1.80;80.50;;;;;;5014953;28;21009;-68
2021/12/23 05:41:07;;;;;;;9.10;8.20;;;-1.60;80.50;;;;;;5015220;28;20502;-68
2021/12/23 05:43:33;;;;;;;9.43;8.13;;;-1.60;80.00;;;;;;5015186;28;20460;-68
2021/12/23 05:46:01;;;;;;;9.60;8.00;;;-1.60;80.20;;;;;;5015218;28;20444;-68
2021/12/23 05:48:28;;;;;;;9.90;8.30;;;-1.40;79.90;;;;;;5015124;28;20448;-69
2021/12/23 05:50:55;;;;;;;8.70;7.73;;;-1.10;79.20;;;;;;5014680;28;20480;-68
2021/12/23 05:53:21;;;;;;;8.07;7.03;;;-1.00;78.70;;;;;;5015238;28;20452;-68
2021/12/23 05:55:48;;;;;;;10.03;9.03;;;-0.90;77.70;;;;;;5015011;28;20846;-68
2021/12/23 05:58:15;;;;;;;8.50;7.37;;;-0.90;77.20;;;;;;5014734;28;20994;-68
2021/12/23 06:00:41;;;;;;;10.67;8.53;;;-0.80;76.90;;;;;;5014716;28;20452;-69
2021/12/23 06:03:09;;;;;;;9.00;7.47;;;-0.90;76.50;;;;;;5014868;28;20433;-69
2021/12/23 06:05:36;;;;;;;8.47;7.17;;;-1.10;76.80;;;;;;5014796;28;20444;-69
2021/12/23 06:08:03;;;;;;;8.87;6.90;;;-1.00;77.40;;;;;;5014795;28;20448;-68
2021/12/23 06:10:30;;;;;;;8.70;7.43;;;-0.90;77.10;;;;;;5014556;28;20534;-68
2021/12/23 06:12:56;;;;;;;8.77;7.90;;;-0.80;76.80;;;;;;5014366;28;20948;-69
2021/12/23 06:15:23;;;;;;;8.70;7.10;;;-0.70;76.80;;;;;;5014344;28;20951;-68
2021/12/23 06:17:50;;;;;;;8.90;7.97;;;-0.60;76.40;;;;;;5014966;28;20892;-68
2021/12/23 06:20:18;;;;;;;11.20;7.60;;;-0.50;75.90;;;;;;5014444;28;20510;-68
2021/12/23 06:22:45;;;;;;;10.27;7.33;;;-0.50;75.80;;;;;;5014366;28;20479;-68
2021/12/23 06:25:12;;;;;;;8.80;7.37;;;-0.50;75.90;;;;;;5014500;28;20452;-68
2021/12/23 06:27:40;;;;;;;9.87;8.90;;;-0.40;75.30;;;;;;5014076;28;20943;-68
2021/12/23 06:30:17;;;;;;;8.50;7.37;;;-0.50;75.40;;;;;;5014248;28;20483;-69
2021/12/23 06:32:45;;;;;;;9.00;8.10;;;-0.60;75.50;;;;;;5014342;28;20558;-68
2021/12/23 06:35:13;;;;;;;9.67;8.67;;;-0.70;76.00;;;;;;5014018;28;20877;-68
2021/12/23 06:37:41;;;;;;;9.90;9.00;;;-0.50;76.10;;;;;;5014243;28;20502;-68
2021/12/23 06:40:09;;;;;;;9.50;7.80;;;-0.60;76.20;;;;;;5014147;28;20498;-68
2021/12/23 06:42:36;;;;;;;8.93;8.07;;;-0.50;76.20;;;;;;5014132;28;20476;-68
2021/12/23 06:45:04;;;;;;;8.23;7.33;;;-0.40;76.30;;;;;;5014207;28;20506;-68
2021/12/23 06:47:31;;;;;;;9.53;8.30;;;-0.30;76.00;;;;;;5014099;28;20456;-68
2021/12/23 06:49:58;;;;;;;8.87;8.00;;;-0.30;75.70;;;;;;5013716;28;20448;-68
2021/12/23 06:52:25;;;;;;;8.97;8.07;;;-0.50;76.00;;;;;;5013659;28;20480;-68
2021/12/23 06:54:55;;;;;;;8.57;7.43;;;-0.60;76.70;;;;;;5013972;28;20455;-69
2021/12/23 06:57:22;;;;;;;6.93;6.23;;;-0.80;77.50;;;;;;5013950;28;20436;-68
2021/12/23 06:59:49;;;;;;;7.47;6.77;;;-0.80;78.30;;;;;;5013542;28;20498;-69
2021/12/23 07:02:15;;;;;;;8.27;6.30;;;-0.90;78.90;;;;;;5012694;28;20495;-69
2021/12/23 07:04:43;;;;;;;7.97;7.00;;;-0.80;79.10;;;;;;5013793;28;20452;-68
2021/12/23 07:07:12;;;;;;;8.57;7.13;;;-0.90;79.20;;;;;;5013692;28;20452;-68
2021/12/23 07:09:40;;;;;;;8.53;7.63;;;-0.80;79.40;;;;;;5013689;28;20507;-69
2021/12/23 07:12:10;;;;;;;8.77;6.93;;;-0.80;79.40;;;;;;5013191;28;20488;-69
2021/12/23 07:14:38;;;;;;;8.40;7.20;;;-0.80;79.20;;;;;;5013672;28;20498;-67
2021/12/23 07:17:07;;;;;;;7.00;6.30;;;-0.90;79.60;;;;;;5013180;28;20869;-67
2021/12/23 07:19:33;;;;;;;8.73;6.80;;;-1.00;80.00;;;;;;5013307;28;20483;-68
2021/12/23 07:22:00;;;;;;;7.77;5.93;;;-0.90;80.50;;;;;;5013194;28;20468;-67
2021/12/23 07:24:28;;;;;;;7.90;7.10;;;-0.90;80.50;;;;;;5013316;28;20531;-67
2021/12/23 07:26:55;;;;;;;8.00;7.13;;;-0.90;80.40;;;;;;5012965;28;20448;-66
2021/12/23 07:29:23;;;;;;;7.30;6.30;;;-1.00;80.50;;;;;;5013005;28;20506;-66
2021/12/23 07:31:50;;;;;;;7.47;6.67;;;-0.90;80.60;;;;;;5013101;28;20549;-67
2021/12/23 07:34:16;;;;;;;10.53;7.70;;;-0.90;80.50;;;;;;5013492;28;20503;-66
2021/12/23 07:36:44;;;;;;;6.80;6.00;;;-0.70;80.20;;;;;;5013186;28;20451;-67
2021/12/23 07:39:11;;;;;;;8.50;6.70;;;-0.60;79.60;;;;;;5013137;28;20444;-68
2021/12/23 07:41:37;;;;;;;7.60;6.47;;;-0.50;79.60;;;;;;5013091;28;20522;-67
2021/12/23 07:44:07;;;;;;;8.27;6.37;;;-0.40;79.20;;;;;;5013988;28;20502;-68
2021/12/23 07:46:38;;;;;;;8.27;7.47;;;-0.30;78.70;;;;;;5013266;28;20448;-68
2021/12/23 07:49:05;;;;;;;7.67;6.40;;;-0.20;79.00;;;;;;5013186;28;20432;-70
2021/12/23 07:51:32;;;;;;;8.20;7.00;;;-0.10;78.40;;;;;;5012998;28;20538;-69
2021/12/23 07:53:59;;;;;;;7.13;6.40;;;0.00;77.90;;;;;;5013203;28;20452;-69
2021/12/23 07:56:26;;;;;;;8.23;6.93;;;-0.10;78.10;;;;;;5013056;28;20502;-68
2021/12/23 07:58:53;;;;;;;8.20;6.00;;;0.20;78.10;;;;;;5013815;28;20468;-66
2021/12/23 08:01:20;;;;;;;7.57;6.87;;;0.40;76.70;;;;;;5012571;28;21080;-67
2021/12/23 08:03:48;;;;;;;6.83;5.83;;;0.40;76.20;;;;;;5012771;28;20869;-68
2021/12/23 08:06:15;;;;;;;7.83;7.03;;;0.60;76.40;;;;;;5013533;28;20444;-67
2021/12/23 08:08:42;;;;;;;6.47;5.63;;;0.80;76.00;;;;;;5013455;28;20448;-70
2021/12/23 08:11:09;;;;;;;7.57;6.37;;;1.00;75.30;;;;;;5013225;28;20611;-67
2021/12/23 08:13:37;;;;;;;8.10;6.37;;;1.10;74.50;;;;;;5014470;28;20448;-67
2021/12/23 08:16:05;;;;;;;7.03;6.00;;;1.20;73.90;;;;;;5017268;28;20459;-68
2021/12/23 08:18:33;;;;;;;7.67;6.57;;;1.20;74.00;;;;;;5017201;28;20497;-68
2021/12/23 08:21:01;;;;;;;7.03;6.33;;;1.10;74.40;;;;;;5017055;28;20464;-70
2021/12/23 08:23:28;;;;;;;7.40;6.27;;;1.10;74.10;;;;;;5016944;28;20455;-71
2021/12/23 08:25:56;;;;;;;6.90;6.10;;;1.10;74.20;;;;;;5016756;28;20455;-69
2021/12/23 08:28:23;;;;;;;6.83;6.03;;;1.20;74.30;;;;;;5016981;28;20448;-68
2021/12/23 08:30:49;;;;;;;8.57;6.43;;;1.40;74.10;;;;;;5016743;28;21006;-75
2021/12/23 08:33:16;;;;;;;7.20;6.03;;;1.60;73.60;;;;;;5017425;28;20451;-75
2021/12/23 08:35:43;;;;;;;6.83;5.43;;;1.40;73.10;;;;;;5018234;28;20458;-74
2021/12/23 08:38:11;;;;;;;7.93;7.03;;;1.40;73.10;;;;;;5017373;28;20575;-73
2021/12/23 08:40:38;;;;;;;6.67;5.57;;;1.10;73.70;;;;;;5016958;28;20451;-74
2021/12/23 08:43:05;;;;;;;6.23;5.47;;;1.10;74.50;;;;;;5016902;28;20447;-75
2021/12/23 08:45:33;;;;;;;6.23;5.60;;;1.30;74.40;;;;;;5016993;28;20448;-76
2021/12/23 08:48:00;;;;;;;6.73;5.90;;;1.20;74.20;;;;;;5016944;28;20452;-76
2021/12/23 08:50:30;;;;;;;7.10;5.67;;;1.00;74.30;;;;;;5017136;28;20543;-75
2021/12/23 08:52:57;;;;;;;7.70;6.10;;;0.80;75.10;;;;;;5016355;28;20502;-75
2021/12/23 08:55:28;;;;;;;6.63;5.80;;;0.90;76.20;;;;;;5016324;28;20878;-75
2021/12/23 08:57:55;;;;;;;6.20;4.67;;;1.10;75.50;;;;;;5016377;28;20806;-76
2021/12/23 09:00:22;;;;;;;7.33;6.23;;;1.20;75.00;;;;;;5016298;28;20514;-76
2021/12/23 09:02:49;;;;;;;6.10;5.00;;;1.30;75.20;;;;;;5015656;28;20460;-76
2021/12/23 09:05:19;;;;;;;5.67;4.60;;;1.40;75.10;;;;;;5015987;28;20452;-76
2021/12/23 09:07:45;;;;;;;6.80;6.10;;;1.50;75.30;;;;;;5015953;28;20448;-76
2021/12/23 09:10:12;;;;;;;6.93;5.23;;;1.70;75.10;;;;;;5016063;28;21006;-76
2021/12/23 09:12:40;;;;;;;6.27;5.60;;;1.80;75.00;;;;;;5015866;28;20530;-75
2021/12/23 09:15:08;;;;;;;6.07;4.97;;;1.80;75.30;;;;;;5015921;28;20502;-76
2021/12/23 09:17:36;;;;;;;5.77;5.17;;;2.00;75.70;;;;;;5015806;28;20483;-75
2021/12/23 09:20:04;;;;;;;6.63;5.93;;;2.00;74.80;;;;;;5015711;28;20514;-74
2021/12/23 09:22:31;;;;;;;6.37;4.87;;;2.10;75.10;;;;;;5015574;28;20460;-74
2021/12/23 09:25:03;;;;;;;4.77;4.20;;;2.10;74.70;;;;;;5014699;28;20543;-75
2021/12/23 09:27:36;;;;;;;6.60;5.33;;;2.10;75.30;;;;;;5015338;28;20451;-75
2021/12/23 09:32:53;;;;;;;5.83;5.20;;;2.10;75.30;;;;;;5015599;28;20459;-75
2021/12/23 09:35:22;;;;;;;7.07;5.00;;;2.20;75.50;;;;;;5015060;28;20452;-75
2021/12/23 09:37:49;;;;;;;5.33;4.50;;;2.20;75.60;;;;;;5015435;28;20522;-74
2021/12/23 09:40:17;;;;;;;8.70;6.40;;;2.40;75.40;;;;;;5014887;28;20448;-75
2021/12/23 09:42:45;;;;;;;5.93;5.30;;;2.40;75.50;;;;;;5014873;28;20469;-75
2021/12/23 09:45:17;;;;;;;5.27;4.77;;;2.40;75.60;;;;;;5015456;28;20551;-75
2021/12/23 09:47:46;;;;;;;6.23;5.63;;;2.40;75.80;;;;;;5014949;28;20836;-75
2021/12/23 09:50:16;;;;;;;6.67;4.70;;;2.50;76.10;;;;;;5015295;28;20444;-75
2021/12/23 09:52:45;;;;;;;6.03;4.33;;;2.70;75.90;;;;;;5015051;28;20484;-75
2021/12/23 09:55:14;;;;;;;6.33;5.43;;;2.90;75.70;;;;;;5015627;28;20851;-75
2021/12/23 09:57:41;;;;;;;6.10;5.00;;;3.00;75.00;;;;;;5015116;28;20444;-75
2021/12/23 10:00:11;;;;;;;5.20;3.93;;;3.00;75.10;;;;;;5014978;28;20456;-75
2021/12/23 10:02:41;;;;;;;4.80;4.10;;;3.10;75.00;;;;;;5016637;28;20526;-75
2021/12/23 10:05:11;;;;;;;4.73;4.00;;;3.30;74.90;;;;;;5014749;28;20779;-75
2021/12/23 10:07:39;;;;;;;5.20;3.87;;;3.20;74.50;;;;;;5014987;28;20445;-75
2021/12/23 10:10:12;;;;;;;5.83;5.23;;;3.30;74.70;;;;;;5014935;28;20463;-75
2021/12/23 10:27:37;;;;;;;4.63;3.93;;;4.00;74.40;;;;;;5014601;28;20506;-74
2021/12/23 10:38:29;;;;;;;4.97;3.00;;;4.50;73.10;;;;;;5013697;28;20491;-74
2021/12/23 10:41:00;;;;;;;4.07;3.13;;;4.40;72.80;;;;;;5014144;28;20931;-74
2021/12/23 10:43:31;;;;;;;4.13;3.20;;;4.40;73.50;;;;;;5014516;28;20435;-74
2021/12/23 10:46:01;;;;;;;4.00;2.83;;;4.60;73.40;;;;;;5014952;28;20518;-74
2021/12/23 10:48:33;;;;;;;4.10;2.90;;;4.70;72.60;;;;;;5014192;28;20866;-74
2021/12/23 10:51:06;;;;;;;4.30;3.40;;;4.80;72.10;;;;;;5014000;28;21008;-74
2021/12/23 10:59:14;;;;;;;4.70;3.67;;;5.00;72.40;;;;;;5014337;28;20419;-74
2021/12/23 11:02:05;;;;;;;3.63;3.03;;;4.90;72.00;;;;;;5014195;28;20427;-74
2021/12/23 11:04:37;;;;;;;4.00;2.80;;;4.90;72.60;;;;;;5014169;28;20531;-73
2021/12/23 11:07:16;;;;;;;5.60;4.13;;;4.90;72.20;;;;;;5014017;28;20507;-73
2021/12/23 11:10:16;;;;;;;4.90;3.50;;;5.00;72.70;;;;;;5014033;28;20437;-73
2021/12/23 11:35:51;;;;;;;3.90;2.80;;;5.20;71.00;;;;;;5013573;28;20861;-74
2021/12/23 11:38:28;;;;;;;3.90;2.83;;;5.40;71.20;;;;;;5013959;28;20428;-74
2021/12/23 11:41:00;;;;;;;3.70;3.03;;;5.60;71.10;;;;;;5013836;28;20472;-74
2021/12/23 11:43:32;;;;;;;4.00;2.80;;;5.50;70.00;;;;;;5013260;28;20475;-74
2021/12/23 11:46:00;;;;;;;3.03;2.03;;;5.60;70.30;;;;;;5013507;28;20963;-74
2021/12/23 11:48:27;;;;;;;4.23;2.40;;;5.60;70.40;;;;;;5014379;28;20452;-74
2021/12/23 11:51:01;;;;;;;4.80;2.47;;;5.70;69.90;;;;;;5017447;28;20437;-74
2021/12/23 11:53:28;;;;;;;3.40;2.50;;;5.60;69.60;;;;;;5017515;28;20472;-75
2021/12/23 11:55:56;;;;;;;3.80;2.30;;;5.70;69.50;;;;;;5017160;28;20975;-74
2021/12/23 11:58:24;;;;;;;3.90;2.23;;;5.90;69.80;;;;;;5017465;28;20448;-74
2021/12/23 12:01:02;;;;;;;3.60;2.47;;;6.00;69.20;;;;;;5017522;28;20462;-74
2021/12/23 12:03:29;;;;;;;3.77;2.57;;;6.10;69.40;;;;;;5017474;28;20427;-74
2021/12/23 12:06:15;;;;;;;4.20;2.47;;;6.20;68.10;;;;;;5017060;28;20468;-74
2021/12/23 12:08:41;;;;;;;3.30;2.27;;;6.10;68.20;;;;;;5017322;28;20424;-74
2021/12/23 12:11:18;;;;;;;4.53;2.30;;;6.30;68.40;;;;;;5021450;28;20444;-75
2021/12/23 12:13:45;;;;;;;3.43;1.83;;;6.40;68.70;;;;;;5026848;28;20443;-75
2021/12/23 12:16:30;;;;;;;3.10;1.90;;;6.50;67.80;;;;;;5026599;28;20806;-75
2021/12/23 12:18:57;;;;;;;2.83;1.70;;;6.50;67.60;;;;;;5025403;28;20463;-74
2021/12/23 12:21:28;;;;;;;3.27;1.80;;;6.60;68.30;;;;;;5024755;28;20456;-75
2021/12/23 12:24:13;;;;;;;3.60;2.27;;;6.80;68.10;;;;;;5025233;28;20435;-74
2021/12/23 12:27:01;;;;;;;3.10;2.03;;;6.90;67.20;;;;;;5025279;28;20467;-75
2021/12/23 12:29:36;;;;;;;2.90;1.63;;;6.90;67.90;;;;;;5025258;28;20504;-75
2021/12/23 12:32:03;;;;;;;3.30;2.00;;;7.00;67.00;;;;;;5024723;28;20490;-75
2021/12/23 12:34:36;;;;;;;3.10;1.73;;;7.10;67.10;;;;;;5024051;28;20447;-75
2021/12/23 12:37:04;;;;;;;2.63;1.40;;;7.20;66.60;;;;;;5024917;28;20463;-75
2021/12/23 12:39:36;;;;;;;2.73;1.57;;;7.20;66.80;;;;;;5024456;28;20448;-74
2021/12/23 12:42:06;;;;;;;2.77;1.63;;;7.20;67.10;;;;;;5025795;28;20519;-74
2021/12/23 12:44:46;;;;;;;2.97;1.87;;;7.20;66.50;;;;;;5025938;28;20459;-75
2021/12/23 12:47:26;;;;;;;2.93;1.60;;;7.30;66.40;;;;;;5026281;28;20468;-75
2021/12/23 12:50:09;;;;;;;3.03;1.43;;;7.40;66.00;;;;;;5024521;28;20421;-75
2021/12/23 12:52:37;;;;;;;2.80;1.60;;;7.30;66.10;;;;;;5025254;28;20468;-74
2021/12/23 12:55:08;;;;;;;3.00;1.80;;;7.30;66.10;;;;;;5024561;28;20440;-75
2021/12/23 12:57:39;;;;;;;2.97;1.80;;;7.30;66.10;;;;;;5019493;28;20920;-74
2021/12/23 13:00:20;;;;;;;2.53;1.40;;;7.40;66.00;;;;;;5015519;28;20441;-74
2021/12/23 13:02:53;;;;;;;3.77;2.23;;;7.40;66.50;;;;;;5016318;28;20435;-74
2021/12/23 13:05:27;;;;;;;3.00;1.97;;;7.30;66.50;;;;;;5016148;28;20456;-74
2021/12/23 13:07:54;;;;;;;2.90;1.70;;;7.40;66.10;;;;;;5015899;28;20994;-74
2021/12/23 13:10:29;;;;;;;2.70;1.67;;;7.30;65.70;;;;;;5016272;28;20444;-75
2021/12/23 13:12:58;;;;;;;3.53;2.07;;;7.40;66.30;;;;;;5016097;28;20471;-74
2021/12/23 13:15:30;;;;;;;3.43;2.33;;;7.40;66.30;;;;;;5015978;28;20459;-74
2021/12/23 13:18:01;;;;;;;4.17;2.17;;;7.30;65.80;;;;;;5016088;28;20494;-75
2021/12/23 13:20:40;;;;;;;3.10;1.70;;;7.20;66.30;;;;;;5016093;28;20433;-75
2021/12/23 13:23:12;;;;;;;3.63;2.33;;;7.10;66.50;;;;;;5015980;28;20440;-75
2021/12/23 13:25:51;;;;;;;2.70;1.80;;;7.00;66.50;;;;;;5015864;28;20472;-75
2021/12/23 13:28:36;;;;;;;3.70;1.67;;;6.90;66.90;;;;;;5015564;28;20848;-75
2021/12/23 13:31:05;;;;;;;3.20;1.90;;;7.00;67.20;;;;;;5015832;28;20446;-75
2021/12/23 13:33:42;;;;;;;3.33;2.30;;;7.00;66.40;;;;;;5015620;28;20487;-75
2021/12/23 13:36:14;;;;;;;2.90;1.90;;;7.10;66.60;;;;;;5015615;28;20507;-75
2021/12/23 13:38:42;;;;;;;2.70;1.77;;;7.20;66.50;;;;;;5015699;28;20495;-75
2021/12/23 13:41:28;;;;;;;2.80;1.60;;;7.40;66.00;;;;;;5015598;28;20452;-74
2021/12/23 13:43:59;;;;;;;2.80;1.87;;;7.30;65.90;;;;;;5015156;28;20428;-75
2021/12/23 13:46:28;;;;;;;2.90;1.97;;;7.30;65.90;;;;;;5015235;28;20999;-75
2021/12/23 13:49:00;;;;;;;3.87;2.30;;;7.20;66.10;;;;;;5015405;28;20456;-75
2021/12/23 13:51:30;;;;;;;3.60;2.30;;;7.20;66.30;;;;;;5015323;28;20479;-75
2021/12/23 13:54:12;;;;;;;3.33;2.00;;;7.10;66.50;;;;;;5015243;28;20491;-75
2021/12/23 13:56:42;;;;;;;3.53;2.10;;;7.10;66.60;;;;;;5015244;28;20468;-75
2021/12/23 13:59:13;;;;;;;3.23;1.90;;;7.10;66.70;;;;;;5015242;28;20499;-75
2021/12/23 14:01:55;;;;;;;3.47;2.00;;;7.10;66.40;;;;;;5015163;28;20441;-75
2021/12/23 14:04:44;;;;;;;3.10;1.97;;;7.00;66.70;;;;;;5015186;28;20448;-75
2021/12/23 14:07:19;;;;;;;4.07;2.00;;;6.90;66.90;;;;;;5013202;28;20995;-75
2021/12/23 14:09:50;;;;;;;2.90;1.90;;;7.00;67.00;;;;;;5014716;28;20436;-75
2021/12/23 14:12:21;;;;;;;2.80;1.80;;;7.00;66.70;;;;;;5014915;28;20507;-75
2021/12/23 14:15:01;;;;;;;3.10;1.77;;;6.90;67.00;;;;;;5015495;28;20441;-75
2021/12/23 14:17:33;;;;;;;2.73;1.77;;;6.80;67.00;;;;;;5014622;28;20482;-75
2021/12/23 14:23:15;;;;;;;3.10;2.23;;;7.00;67.40;;;;;;5014567;28;20404;-75
2021/12/23 14:25:49;;;;;;;3.10;2.60;;;7.00;66.60;;;;;;5015368;28;20551;-75
2021/12/23 14:28:18;;;;;;;3.87;2.37;;;6.90;66.70;;;;;;5014865;28;20440;-75
2021/12/23 14:30:49;;;;;;;3.20;2.00;;;7.00;66.70;;;;;;5015534;28;20456;-74
2021/12/23 14:33:19;;;;;;;2.83;1.80;;;7.00;66.60;;;;;;5014513;28;20518;-75
2021/12/23 14:36:05;;;;;;;3.10;2.13;;;7.10;66.80;;;;;;5014179;28;20980;-75
2021/12/23 14:38:36;;;;;;;3.37;2.20;;;7.10;67.10;;;;;;5014495;28;20436;-74
2021/12/23 14:41:15;;;;;;;3.27;2.30;;;7.10;66.40;;;;;;5014519;28;20490;-75
2021/12/23 14:44:00;;;;;;;3.20;2.30;;;7.20;66.70;;;;;;5014372;28;20995;-75
2021/12/23 14:47:06;;;;;;;3.90;2.03;;;7.10;66.60;;;;;;5014032;28;21049;-75
2021/12/23 14:50:00;;;;;;;3.60;2.20;;;7.20;66.20;;;;;;4973111;28;20437;-75
2021/12/23 14:52:32;;;;;;;4.00;2.43;;;7.10;66.30;;;;;;5014254;28;20472;-75
2021/12/23 14:55:00;;;;;;;2.70;1.67;;;7.10;67.10;;;;;;5014336;28;20805;-75
2021/12/23 14:57:29;;;;;;;3.80;2.40;;;7.20;66.50;;;;;;5013722;28;20991;-74
2021/12/23 14:59:59;;;;;;;3.77;2.00;;;7.30;65.80;;;;;;5014137;28;20503;-74
2021/12/23 15:02:29;;;;;;;3.40;2.00;;;7.30;65.80;;;;;;5013765;28;20935;-74
2021/12/23 15:05:17;;;;;;;3.10;2.00;;;7.40;66.00;;;;;;5014894;28;20436;-75
2021/12/23 15:08:02;;;;;;;2.83;1.70;;;7.30;65.70;;;;;;5013751;28;20827;-74
2021/12/23 15:10:41;;;;;;;3.77;1.90;;;7.30;66.30;;;;;;5024775;28;20437;-74
2021/12/23 15:13:23;;;;;;;3.20;2.20;;;7.30;65.80;;;;;;5024990;28;20472;-74
2021/12/23 15:15:57;;;;;;;3.30;2.00;;;7.30;65.90;;;;;;5026149;28;20481;-75
2021/12/23 15:18:36;;;;;;;3.27;2.27;;;7.40;66.10;;;;;;5026864;28;20464;-74
2021/12/23 15:21:10;;;;;;;3.30;2.20;;;7.40;65.90;;;;;;5024674;28;20431;-74
2021/12/23 15:23:41;;;;;;;3.30;1.70;;;7.40;65.20;;;;;;5024533;28;20508;-74
2021/12/23 15:26:23;;;;;;;3.20;2.10;;;7.30;65.50;;;;;;5024730;28;20501;-75
2021/12/23 15:29:21;;;;;;;3.40;2.20;;;7.30;65.70;;;;;;5024533;28;20448;-74
2021/12/23 15:31:58;;;;;;;3.57;2.40;;;7.30;66.30;;;;;;4984071;28;20411;-75
2021/12/23 15:34:29;;;;;;;3.40;2.20;;;7.10;66.20;;;;;;5016690;28;20492;-74
2021/12/23 15:36:58;;;;;;;3.60;2.47;;;7.10;66.60;;;;;;5023981;28;20472;-74
2021/12/23 15:39:28;;;;;;;3.40;2.30;;;7.10;66.90;;;;;;5023400;28;20456;-74
2021/12/23 15:41:55;;;;;;;3.40;2.50;;;6.90;67.40;;;;;;5024696;28;20924;-74
2021/12/23 15:44:27;;;;;;;3.37;2.30;;;6.90;67.40;;;;;;5023336;28;20452;-74
2021/12/23 15:46:56;;;;;;;3.60;1.87;;;7.00;67.70;;;;;;5023048;28;21002;-74
2021/12/23 15:49:23;;;;;;;3.60;2.27;;;6.80;67.70;;;;;;5023274;28;20527;-74
2021/12/23 15:51:52;;;;;;;3.33;2.13;;;6.90;67.90;;;;;;5024667;28;20452;-75
2021/12/23 15:54:18;;;;;;;3.00;2.20;;;6.80;68.00;;;;;;5026493;28;20500;-74
2021/12/23 15:56:46;;;;;;;2.77;1.80;;;6.80;68.10;;;;;;5026406;28;20460;-74
2021/12/23 15:59:13;;;;;;;3.67;2.37;;;6.80;68.10;;;;;;5025061;28;20440;-73
2021/12/23 16:01:40;;;;;;;3.27;2.30;;;6.80;68.70;;;;;;5023963;28;20475;-73
2021/12/23 16:04:08;;;;;;;3.20;2.07;;;6.80;68.60;;;;;;5023268;28;20453;-74
2021/12/23 16:09:21;;;;;;;3.40;2.47;;;7.00;68.40;;;;;;5024763;28;20451;-74
2021/12/23 16:11:49;;;;;;;4.27;2.47;;;7.10;68.10;;;;;;5025084;28;20460;-74
2021/12/23 16:14:16;;;;;;;4.33;2.90;;;7.10;67.90;;;;;;5023256;28;20987;-73
2021/12/23 16:16:43;;;;;;;3.47;2.53;;;7.20;67.90;;;;;;5044065;23;20567;-75
2021/12/23 16:19:10;;;;;;;3.03;2.53;;;7.30;67.80;;;;;;5013407;28;20452;-76
2021/12/23 16:21:36;;;;;;;3.50;2.43;;;7.10;68.40;;;;;;5013085;28;21009;-75
2021/12/23 16:24:04;;;;;;;3.17;2.23;;;7.00;68.70;;;;;;5013380;28;20476;-75
2021/12/23 16:26:32;;;;;;;3.67;2.67;;;7.20;68.80;;;;;;5013188;28;20487;-76
2021/12/23 16:28:58;;;;;;;3.53;2.70;;;7.40;68.30;;;;;;5013237;28;20482;-75
2021/12/23 16:31:27;;;;;;;3.87;2.73;;;7.10;68.50;;;;;;5013220;28;20448;-75
2021/12/23 16:33:55;;;;;;;3.30;2.57;;;7.30;68.90;;;;;;5013135;28;20829;-75
2021/12/23 16:36:22;;;;;;;4.37;2.63;;;7.30;68.70;;;;;;5016403;28;20996;-75
2021/12/23 16:38:51;;;;;;;3.57;2.30;;;7.30;68.60;;;;;;5016860;28;20452;-75
2021/12/23 16:41:18;;;;;;;4.00;3.20;;;7.30;69.10;;;;;;5016761;28;20456;-75
2021/12/23 16:43:47;;;;;;;3.03;2.20;;;7.10;69.10;;;;;;5016640;28;20443;-75
2021/12/23 16:46:14;;;;;;;4.40;3.00;;;7.30;69.20;;;;;;5016611;28;20468;-75
2021/12/23 16:48:42;;;;;;;3.77;2.80;;;7.40;68.70;;;;;;5016561;28;20498;-76
2021/12/23 16:51:11;;;;;;;3.07;1.93;;;7.40;68.90;;;;;;5016544;28;20452;-76
2021/12/23 16:53:38;;;;;;;3.17;2.30;;;7.30;69.10;;;;;;5016627;28;20534;-75
2021/12/23 16:58:58;;;;;;;3.70;2.70;;;7.20;69.90;;;;;;4978610;28;20481;-74
2021/12/23 17:01:25;;;;;;;3.77;2.73;;;7.40;69.30;;;;;;5016401;28;20479;-74
2021/12/23 17:03:52;;;;;;;2.97;1.80;;;7.30;69.80;;;;;;5015957;28;20993;-74
2021/12/23 17:06:20;;;;;;;3.53;2.63;;;7.40;69.70;;;;;;5016197;28;20456;-74
2021/12/23 17:08:47;;;;;;;3.70;3.10;;;7.50;69.50;;;;;;5015962;28;20985;-75
2021/12/23 17:11:14;;;;;;;4.27;2.63;;;7.60;69.20;;;;;;5016144;28;20531;-75
2021/12/23 17:13:40;;;;;;;3.67;2.30;;;7.70;68.90;;;;;;5015709;28;20998;-74
2021/12/23 17:16:09;;;;;;;4.27;3.50;;;7.60;69.10;;;;;;5015583;28;20884;-74
2021/12/23 17:18:42;;;;;;;3.23;2.13;;;7.70;69.30;;;;;;5015693;28;20950;-74
2021/12/23 17:23:55;;;;;;;3.93;3.00;;;7.60;69.10;;;;;;5016078;28;20400;-75
2021/12/23 17:26:22;;;;;;;4.13;2.70;;;7.60;69.50;;;;;;5015507;28;20832;-75
2021/12/23 17:28:48;;;;;;;4.50;2.77;;;7.60;69.40;;;;;;5016410;28;20456;-75
2021/12/23 17:31:17;;;;;;;3.27;2.20;;;7.40;69.80;;;;;;5015854;28;20452;-74
2021/12/23 17:33:45;;;;;;;4.30;2.80;;;7.30;70.50;;;;;;5015728;28;20480;-77
2021/12/23 17:36:12;;;;;;;3.83;2.80;;;7.30;70.80;;;;;;5015725;28;20559;-74
2021/12/23 17:38:45;;;;;;;3.90;2.53;;;7.10;71.30;;;;;;5015360;28;20452;-75
2021/12/23 17:41:12;;;;;;;3.50;2.50;;;7.30;71.10;;;;;;5015702;28;20797;-75
2021/12/23 17:43:39;;;;;;;3.63;2.20;;;7.30;70.90;;;;;;5015639;28;20443;-75
2021/12/23 17:46:06;;;;;;;3.60;2.60;;;7.20;71.20;;;;;;5014950;28;20472;-74
2021/12/23 17:48:34;;;;;;;3.80;2.60;;;7.30;71.20;;;;;;5015475;28;20448;-74
2021/12/23 17:51:01;;;;;;;3.23;2.50;;;7.10;71.80;;;;;;5015455;28;20508;-74
2021/12/23 17:53:29;;;;;;;3.70;2.70;;;7.10;72.10;;;;;;5015190;28;20853;-74
2021/12/23 17:55:57;;;;;;;3.80;1.90;;;7.20;72.20;;;;;;5015294;28;20467;-74
2021/12/23 17:58:23;;;;;;;3.90;3.00;;;7.10;72.40;;;;;;5015369;28;20511;-74
2021/12/23 18:00:51;;;;;;;3.30;2.30;;;7.10;72.80;;;;;;5015353;28;20806;-73
2021/12/23 18:03:19;;;;;;;3.40;1.90;;;7.00;73.30;;;;;;5015249;28;20506;-74
2021/12/23 18:05:49;;;;;;;3.80;2.43;;;7.10;73.20;;;;;;5015147;28;20479;-74
2021/12/23 18:08:17;;;;;;;3.43;2.53;;;7.00;73.40;;;;;;5015205;28;20940;-74
2021/12/23 18:10:44;;;;;;;2.97;2.20;;;6.90;74.00;;;;;;5015192;28;20495;-74
2021/12/23 18:13:11;;;;;;;3.47;2.50;;;6.90;74.20;;;;;;5015018;28;20498;-74
2021/12/23 18:15:39;;;;;;;3.30;2.10;;;6.90;74.20;;;;;;5015061;28;20452;-74